Main page
METAR-TAF:

METAR-TAF

Airports :

Leeming, England

RAF Leeming

latitude: 54-18N, longitude: 001-32W, elevation: 40 m

Current weather observation

The report was made 1 hour and 2 minutes ago, at 12:50 UTC
Wind 13 kt from the West/Southwest
Temperature 16°C
Humidity 68%
Pressure 1010 hPa
Visibility 10 km or more
Broken clouds at a height of 2700 ft
Scattered clouds at a height of 5000 ft

METAR: EGXE 241250Z 24013KT 9999 BKN027 SCT050 16/10 Q1010 BLU TEMPO 24015G26KT BLU

Time: 14:52 (13:52 UTC)

Forecast

The report was made 1 hour and 34 minutes ago, at 12:18 UTC
Forecast valid from 24 at 12 UTC to 24 at 17 UTC
Wind 15 kt from the West
Visibility 10 km or more
Broken clouds at a height of 3000 ft
Temporary
from 24 at 12 UTC to 24 at 17 UTC
Wind 17 kt from the West/Southwest with gusts up to 27 kt
Broken clouds at a height of 2400 ft

TAF: EGXE 241218Z 2412/2417 26015KT 9999 BKN030 TEMPO 2412/2417 25017G27KT BKN024

Weather observations and forecasts of more than 4000 airports (METAR and TAF reports).

The available stations are represented by yellow and red dots on the map.

Hover mouse over dot to see the name of the station.

Then click to see weather observations and forecasts.

To change the map : click on the green buttons with a black cross to zoom in, on the green button with a dash to zoom out, or on the green arrows for adjacent maps.


METAR-TAF: